sensor_id;sensor_type;location;lat;lon;timestamp;pressure;altitude;pressure_sealevel;temperature;humidity
3260;BME280;22469;48.150;14.004;2023-03-03T00:00:49;98093.50;;;5.90;58.21
3260;BME280;22469;48.150;14.004;2023-03-03T00:03:19;98095.22;;;5.89;57.70
3260;BME280;22469;48.150;14.004;2023-03-03T00:05:49;98099.50;;;5.84;57.86
3260;BME280;22469;48.150;14.004;2023-03-03T00:08:18;98097.03;;;5.80;58.15
3260;BME280;22469;48.150;14.004;2023-03-03T00:10:46;98099.69;;;5.69;58.75
3260;BME280;22469;48.150;14.004;2023-03-03T00:13:22;98104.84;;;5.63;59.33
3260;BME280;22469;48.150;14.004;2023-03-03T00:15:51;98100.69;;;5.57;59.19
3260;BME280;22469;48.150;14.004;2023-03-03T00:18:28;98105.81;;;5.54;59.34
3260;BME280;22469;48.150;14.004;2023-03-03T00:20:59;98101.56;;;5.53;59.53
3260;BME280;22469;48.150;14.004;2023-03-03T00:23:30;98111.78;;;5.49;59.65
3260;BME280;22469;48.150;14.004;2023-03-03T00:26:01;98117.69;;;5.52;59.06
3260;BME280;22469;48.150;14.004;2023-03-03T00:28:31;98121.09;;;5.51;59.20
3260;BME280;22469;48.150;14.004;2023-03-03T00:31:19;98108.44;;;5.45;59.92
3260;BME280;22469;48.150;14.004;2023-03-03T00:33:49;98110.94;;;5.46;59.98
3260;BME280;22469;48.150;14.004;2023-03-03T00:36:26;98115.25;;;5.41;60.55
3260;BME280;22469;48.150;14.004;2023-03-03T00:41:44;98116.97;;;5.38;60.04
3260;BME280;22469;48.150;14.004;2023-03-03T00:44:41;98116.13;;;5.37;60.08
3260;BME280;22469;48.150;14.004;2023-03-03T00:47:35;98122.09;;;5.33;60.25
3260;BME280;22469;48.150;14.004;2023-03-03T00:52:39;98117.09;;;5.27;60.45
3260;BME280;22469;48.150;14.004;2023-03-03T00:55:09;98120.53;;;5.20;61.09
3260;BME280;22469;48.150;14.004;2023-03-03T00:57:37;98123.16;;;5.09;62.05
3260;BME280;22469;48.150;14.004;2023-03-03T01:00:04;98112.97;;;5.09;61.83
3260;BME280;22469;48.150;14.004;2023-03-03T01:02:32;98115.56;;;5.06;62.49
3260;BME280;22469;48.150;14.004;2023-03-03T01:04:59;98107.94;;;5.05;61.94
3260;BME280;22469;48.150;14.004;2023-03-03T01:07:26;98110.50;;;5.06;61.78
3260;BME280;22469;48.150;14.004;2023-03-03T01:09:53;98108.00;;;5.00;61.82
3260;BME280;22469;48.150;14.004;2023-03-03T01:12:20;98115.59;;;5.02;61.72
3260;BME280;22469;48.150;14.004;2023-03-03T01:14:47;98111.34;;;5.04;61.71
3260;BME280;22469;48.150;14.004;2023-03-03T01:17:15;98121.53;;;5.01;61.81
3260;BME280;22469;48.150;14.004;2023-03-03T01:19:42;98121.53;;;5.01;61.73
3260;BME280;22469;48.150;14.004;2023-03-03T01:22:09;98121.59;;;4.93;61.83
3260;BME280;22469;48.150;14.004;2023-03-03T01:24:36;98124.97;;;4.96;61.81
3260;BME280;22469;48.150;14.004;2023-03-03T01:27:03;98119.88;;;4.95;61.46
3260;BME280;22469;48.150;14.004;2023-03-03T01:29:30;98124.09;;;4.97;61.61
3260;BME280;22469;48.150;14.004;2023-03-03T01:31:57;98123.34;;;4.86;61.73
3260;BME280;22469;48.150;14.004;2023-03-03T01:34:24;98130.09;;;4.87;61.82
3260;BME280;22469;48.150;14.004;2023-03-03T01:36:51;98130.09;;;4.87;61.51
3260;BME280;22469;48.150;14.004;2023-03-03T01:39:18;98126.72;;;4.85;61.61
3260;BME280;22469;48.150;14.004;2023-03-03T01:41:45;98125.91;;;4.82;62.05
3260;BME280;22469;48.150;14.004;2023-03-03T01:44:15;98125.06;;;4.83;61.88
3260;BME280;22469;48.150;14.004;2023-03-03T01:47:01;98123.41;;;4.77;62.67
3260;BME280;22469;48.150;14.004;2023-03-03T01:49:40;98128.47;;;4.77;62.69
3260;BME280;22469;48.150;14.004;2023-03-03T01:52:42;98131.06;;;4.75;62.79
3260;BME280;22469;48.150;14.004;2023-03-03T01:55:19;98119.25;;;4.67;63.12
3260;BME280;22469;48.150;14.004;2023-03-03T01:57:56;98119.25;;;4.68;62.83
3260;BME280;22469;48.150;14.004;2023-03-03T02:00:36;98120.94;;;4.65;63.11
3260;BME280;22469;48.150;14.004;2023-03-03T02:03:05;98115.00;;;4.64;63.37
3260;BME280;22469;48.150;14.004;2023-03-03T02:05:34;98112.50;;;4.61;63.45
3260;BME280;22469;48.150;14.004;2023-03-03T02:08:03;98115.03;;;4.66;63.30
3260;BME280;22469;48.150;14.004;2023-03-03T02:10:30;98107.44;;;4.57;63.79
3260;BME280;22469;48.150;14.004;2023-03-03T02:12:57;98110.81;;;4.62;64.00
3260;BME280;22469;48.150;14.004;2023-03-03T02:15:33;98113.38;;;4.62;63.93
3260;BME280;22469;48.150;14.004;2023-03-03T02:18:06;98110.78;;;4.65;63.92
3260;BME280;22469;48.150;14.004;2023-03-03T02:26:28;98121.00;;;4.59;63.71
3260;BME280;22469;48.150;14.004;2023-03-03T02:28:57;98113.38;;;4.62;64.27
3260;BME280;22469;48.150;14.004;2023-03-03T02:31:26;98121.81;;;4.62;63.46
3260;BME280;22469;48.150;14.004;2023-03-03T02:33:56;98124.34;;;4.62;63.32
3260;BME280;22469;48.150;14.004;2023-03-03T02:36:33;98124.34;;;4.65;63.26
3260;BME280;22469;48.150;14.004;2023-03-03T02:39:25;98119.28;;;4.62;63.17
3260;BME280;22469;48.150;14.004;2023-03-03T02:44:33;98117.75;;;4.34;64.45
3260;BME280;22469;48.150;14.004;2023-03-03T02:47:01;98132.09;;;4.41;64.34
3260;BME280;22469;48.150;14.004;2023-03-03T02:49:31;98128.69;;;4.45;64.37
3260;BME280;22469;48.150;14.004;2023-03-03T02:52:01;98125.31;;;4.43;64.14
3260;BME280;22469;48.150;14.004;2023-03-03T02:54:31;98127.84;;;4.43;64.52
3260;BME280;22469;48.150;14.004;2023-03-03T02:56:59;98131.19;;;4.51;64.03
3260;BME280;22469;48.150;14.004;2023-03-03T02:59:27;98128.66;;;4.53;64.26
3260;BME280;22469;48.150;14.004;2023-03-03T03:01:54;98124.44;;;4.50;64.07
3260;BME280;22469;48.150;14.004;2023-03-03T03:04:24;98124.41;;;4.53;64.16
3260;BME280;22469;48.150;14.004;2023-03-03T03:06:53;98127.81;;;4.52;64.26
3260;BME280;22469;48.150;14.004;2023-03-03T03:09:22;98126.97;;;4.48;65.00
3260;BME280;22469;48.150;14.004;2023-03-03T03:11:51;98125.28;;;4.47;65.46
3260;BME280;22469;48.150;14.004;2023-03-03T03:14:18;98132.84;;;4.57;65.10
3260;BME280;22469;48.150;14.004;2023-03-03T03:16:45;98130.28;;;4.60;64.89
3260;BME280;22469;48.150;14.004;2023-03-03T03:19:12;98127.72;;;4.61;65.35
3260;BME280;22469;48.150;14.004;2023-03-03T03:21:39;98130.28;;;4.60;65.84
3260;BME280;22469;48.150;14.004;2023-03-03T03:24:06;98131.09;;;4.66;65.68
3260;BME280;22469;48.150;14.004;2023-03-03T03:26:33;98137.00;;;4.70;65.61
3260;BME280;22469;48.150;14.004;2023-03-03T03:29:00;98134.41;;;4.74;65.46
3260;BME280;22469;48.150;14.004;2023-03-03T03:31:27;98136.94;;;4.79;65.19
3260;BME280;22469;48.150;14.004;2023-03-03T03:33:54;98134.34;;;4.87;64.85
3260;BME280;22469;48.150;14.004;2023-03-03T03:36:21;98135.13;;;4.95;64.63
3260;BME280;22469;48.150;14.004;2023-03-03T03:38:48;98135.13;;;4.96;64.43
3260;BME280;22469;48.150;14.004;2023-03-03T03:41:15;98136.84;;;4.96;64.39
3260;BME280;22469;48.150;14.004;2023-03-03T03:43:43;98135.13;;;4.96;64.39
3260;BME280;22469;48.150;14.004;2023-03-03T03:46:10;98138.47;;;5.03;64.09
3260;BME280;22469;48.150;14.004;2023-03-03T03:48:37;98137.56;;;5.06;64.21
3260;BME280;22469;48.150;14.004;2023-03-03T03:51:04;98140.19;;;4.98;64.52
3260;BME280;22469;48.150;14.004;2023-03-03T03:53:31;98146.09;;;4.98;64.45
3260;BME280;22469;48.150;14.004;2023-03-03T03:55:58;98139.31;;;4.99;64.43
3260;BME280;22469;48.150;14.004;2023-03-03T03:58:25;98143.50;;;5.08;64.34
3260;BME280;22469;48.150;14.004;2023-03-03T04:00:52;98135.03;;;5.10;63.97
3260;BME280;22469;48.150;14.004;2023-03-03T04:03:19;98146.91;;;5.10;64.10
3260;BME280;22469;48.150;14.004;2023-03-03T04:05:47;98140.94;;;5.09;63.90
3260;BME280;22469;48.150;14.004;2023-03-03T04:08:14;98148.56;;;5.11;63.74
3260;BME280;22469;48.150;14.004;2023-03-03T04:10:41;98149.38;;;5.14;63.60
3260;BME280;22469;48.150;14.004;2023-03-03T04:13:08;98146.88;;;5.11;63.69
3260;BME280;22469;48.150;14.004;2023-03-03T04:15:35;98151.13;;;5.11;63.71
3260;BME280;22469;48.150;14.004;2023-03-03T04:18:03;98153.63;;;5.12;63.44
3260;BME280;22469;48.150;14.004;2023-03-03T04:20:30;98164.66;;;5.11;63.14
3260;BME280;22469;48.150;14.004;2023-03-03T04:22:57;98168.88;;;5.14;63.59
3260;BME280;22469;48.150;14.004;2023-03-03T04:25:24;98162.16;;;5.08;63.93
3260;BME280;22469;48.150;14.004;2023-03-03T04:27:51;98173.97;;;5.12;63.88
3260;BME280;22469;48.150;14.004;2023-03-03T04:30:19;98167.16;;;5.16;63.81
3260;BME280;22469;48.150;14.004;2023-03-03T04:32:47;98173.94;;;5.15;64.33
3260;BME280;22469;48.150;14.004;2023-03-03T04:35:15;98173.13;;;5.16;64.29
3260;BME280;22469;48.150;14.004;2023-03-03T04:37:42;98168.84;;;5.18;63.91
3260;BME280;22469;48.150;14.004;2023-03-03T04:40:09;98167.97;;;5.22;64.04
3260;BME280;22469;48.150;14.004;2023-03-03T04:42:37;98162.00;;;5.25;63.84
3260;BME280;22469;48.150;14.004;2023-03-03T04:45:04;98170.47;;;5.27;63.75
3260;BME280;22469;48.150;14.004;2023-03-03T04:47:32;98163.69;;;5.26;63.77
3260;BME280;22469;48.150;14.004;2023-03-03T04:49:59;98156.00;;;5.32;63.92
3260;BME280;22469;48.150;14.004;2023-03-03T04:52:27;98164.44;;;5.39;63.71
3260;BME280;22469;48.150;14.004;2023-03-03T04:54:54;98165.25;;;5.42;63.50
3260;BME280;22469;48.150;14.004;2023-03-03T04:57:21;98163.56;;;5.41;63.84
3260;BME280;22469;48.150;14.004;2023-03-03T04:59:48;98157.59;;;5.47;63.72
3260;BME280;22469;48.150;14.004;2023-03-03T05:02:16;98152.47;;;5.49;63.66
3260;BME280;22469;48.150;14.004;2023-03-03T05:04:43;98152.44;;;5.53;63.90
3260;BME280;22469;48.150;14.004;2023-03-03T05:07:10;98155.81;;;5.55;64.06
3260;BME280;22469;48.150;14.004;2023-03-03T05:09:37;98157.50;;;5.58;64.10
3260;BME280;22469;48.150;14.004;2023-03-03T05:12:05;98159.13;;;5.60;63.96
3260;BME280;22469;48.150;14.004;2023-03-03T05:14:32;98158.31;;;5.61;64.12
3260;BME280;22469;48.150;14.004;2023-03-03T05:16:59;98160.81;;;5.64;63.92
3260;BME280;22469;48.150;14.004;2023-03-03T05:19:26;98162.50;;;5.65;63.72
3260;BME280;22469;48.150;14.004;2023-03-03T05:21:53;98162.47;;;5.67;63.75
3260;BME280;22469;48.150;14.004;2023-03-03T05:24:21;98163.31;;;5.69;63.52
3260;BME280;22469;48.150;14.004;2023-03-03T05:26:48;98170.06;;;5.72;63.85
3260;BME280;22469;48.150;14.004;2023-03-03T05:29:15;98176.81;;;5.76;63.56
3260;BME280;22469;48.150;14.004;2023-03-03T05:31:42;98175.94;;;5.77;63.30
3260;BME280;22469;48.150;14.004;2023-03-03T05:34:11;98186.13;;;5.77;63.08
3260;BME280;22469;48.150;14.004;2023-03-03T05:36:38;98183.53;;;5.83;62.87
3260;BME280;22469;48.150;14.004;2023-03-03T05:39:05;98180.13;;;5.85;62.96
3260;BME280;22469;48.150;14.004;2023-03-03T05:41:32;98186.91;;;5.85;62.68
3260;BME280;22469;48.150;14.004;2023-03-03T05:44:03;98191.13;;;5.84;62.39
3260;BME280;22469;48.150;14.004;2023-03-03T05:46:30;98196.22;;;5.84;62.64
3260;BME280;22469;48.150;14.004;2023-03-03T05:48:57;98194.50;;;5.89;62.32
3260;BME280;22469;48.150;14.004;2023-03-03T05:51:24;98192.84;;;5.84;62.75
3260;BME280;22469;48.150;14.004;2023-03-03T05:53:52;98195.38;;;5.85;62.78
3260;BME280;22469;48.150;14.004;2023-03-03T05:56:22;98193.66;;;5.89;62.94
3260;BME280;22469;48.150;14.004;2023-03-03T05:58:49;98206.34;;;5.92;62.76
3260;BME280;22469;48.150;14.004;2023-03-03T06:01:16;98213.13;;;5.96;62.89
3260;BME280;22469;48.150;14.004;2023-03-03T06:03:43;98213.09;;;5.99;62.95
3260;BME280;22469;48.150;14.004;2023-03-03T06:06:10;98213.06;;;6.02;63.28
3260;BME280;22469;48.150;14.004;2023-03-03T06:08:39;98224.88;;;6.08;63.08
3260;BME280;22469;48.150;14.004;2023-03-03T06:11:06;98213.84;;;6.07;63.35
3260;BME280;22469;48.150;14.004;2023-03-03T06:13:33;98217.22;;;6.09;63.06
3260;BME280;22469;48.150;14.004;2023-03-03T06:16:00;98220.59;;;6.13;63.21
3260;BME280;22469;48.150;14.004;2023-03-03T06:18:28;98218.81;;;6.18;63.21
3260;BME280;22469;48.150;14.004;2023-03-03T06:20:55;98217.94;;;6.21;63.15
3260;BME280;22469;48.150;14.004;2023-03-03T06:23:22;98229.81;;;6.22;63.23
3260;BME280;22469;48.150;14.004;2023-03-03T06:25:49;98234.03;;;6.24;63.13
3260;BME280;22469;48.150;14.004;2023-03-03T06:28:16;98234.91;;;6.22;62.90
3260;BME280;22469;48.150;14.004;2023-03-03T06:30:43;98235.81;;;6.19;62.98
3260;BME280;22469;48.150;14.004;2023-03-03T06:33:10;98250.19;;;6.23;62.89
3260;BME280;22469;48.150;14.004;2023-03-03T06:35:37;98246.72;;;6.30;63.46
3260;BME280;22469;48.150;14.004;2023-03-03T06:38:04;98249.22;;;6.33;63.50
3260;BME280;22469;48.150;14.004;2023-03-03T06:40:31;98248.38;;;6.31;63.48
3260;BME280;22469;48.150;14.004;2023-03-03T06:42:58;98251.75;;;6.36;63.30
3260;BME280;22469;48.150;14.004;2023-03-03T06:45:28;98245.81;;;6.36;63.52
3260;BME280;22469;48.150;14.004;2023-03-03T06:47:55;98247.50;;;6.35;63.58
3260;BME280;22469;48.150;14.004;2023-03-03T06:50:22;98254.25;;;6.38;63.60
3260;BME280;22469;48.150;14.004;2023-03-03T06:53:00;98255.03;;;6.45;63.75
3260;BME280;22469;48.150;14.004;2023-03-03T06:55:32;98248.91;;;6.61;63.92
3260;BME280;22469;48.150;14.004;2023-03-03T06:58:00;98253.53;;;6.27;63.90
3260;BME280;22469;48.150;14.004;2023-03-03T07:00:28;98247.53;;;6.32;64.35
3260;BME280;22469;48.150;14.004;2023-03-03T07:03:00;98256.00;;;6.34;64.46
3260;BME280;22469;48.150;14.004;2023-03-03T07:05:33;98262.66;;;6.48;64.51
3260;BME280;22469;48.150;14.004;2023-03-03T07:08:00;98253.84;;;6.73;64.24
3260;BME280;22469;48.150;14.004;2023-03-03T07:10:28;98268.28;;;6.74;63.14
3260;BME280;22469;48.150;14.004;2023-03-03T07:15:48;98269.13;;;6.75;63.43
3260;BME280;22469;48.150;14.004;2023-03-03T07:18:39;98265.44;;;6.96;63.40
3260;BME280;22469;48.150;14.004;2023-03-03T07:23:59;98277.75;;;7.28;62.24
3260;BME280;22469;48.150;14.004;2023-03-03T07:26:29;98277.69;;;7.32;61.70
3260;BME280;22469;48.150;14.004;2023-03-03T07:29:25;98287.16;;;7.26;62.28
3260;BME280;22469;48.150;14.004;2023-03-03T07:31:58;98284.69;;;7.20;62.26
3260;BME280;22469;48.150;14.004;2023-03-03T07:34:42;98287.25;;;7.18;62.30
3260;BME280;22469;48.150;14.004;2023-03-03T07:39:58;98284.34;;;7.43;61.92
3260;BME280;22469;48.150;14.004;2023-03-03T07:42:39;98291.66;;;7.64;61.39
3260;BME280;22469;48.150;14.004;2023-03-03T07:47:50;98291.31;;;7.86;60.63
3260;BME280;22469;48.150;14.004;2023-03-03T07:50:19;98298.03;;;7.91;60.13
3260;BME280;22469;48.150;14.004;2023-03-03T07:52:56;98297.91;;;7.99;60.34
3260;BME280;22469;48.150;14.004;2023-03-03T07:55:35;98296.00;;;8.10;60.05
3260;BME280;22469;48.150;14.004;2023-03-03T08:03:17;98294.28;;;8.12;59.74
3260;BME280;22469;48.150;14.004;2023-03-03T08:05:49;98293.44;;;8.12;59.54
3260;BME280;22469;48.150;14.004;2023-03-03T08:08:35;98296.22;;;7.98;59.94
3260;BME280;22469;48.150;14.004;2023-03-03T08:11:03;98296.09;;;8.05;60.34
3260;BME280;22469;48.150;14.004;2023-03-03T08:16:35;98296.59;;;8.26;59.65
3260;BME280;22469;48.150;14.004;2023-03-03T08:19:04;98297.22;;;8.37;59.56
3260;BME280;22469;48.150;14.004;2023-03-03T08:21:32;98295.47;;;8.42;59.07
3260;BME280;22469;48.150;14.004;2023-03-03T08:24:01;98295.53;;;8.39;59.36
3260;BME280;22469;48.150;14.004;2023-03-03T08:26:28;98289.53;;;8.42;59.52
3260;BME280;22469;48.150;14.004;2023-03-03T08:28:55;98285.88;;;8.53;59.14
3260;BME280;22469;48.150;14.004;2023-03-03T08:31:22;98286.44;;;8.68;58.86
3260;BME280;22469;48.150;14.004;2023-03-03T08:34:06;98282.94;;;8.73;58.31
3260;BME280;22469;48.150;14.004;2023-03-03T08:36:33;98289.44;;;8.88;58.24
3260;BME280;22469;48.150;14.004;2023-03-03T08:39:02;98290.16;;;8.96;57.69
3260;BME280;22469;48.150;14.004;2023-03-03T08:41:30;98290.88;;;9.01;57.53
3260;BME280;22469;48.150;14.004;2023-03-03T08:43:57;98298.59;;;8.98;57.69
3260;BME280;22469;48.150;14.004;2023-03-03T08:46:24;98306.22;;;9.03;58.06
3260;BME280;22469;48.150;14.004;2023-03-03T08:51:57;98309.50;;;9.08;57.36
3260;BME280;22469;48.150;14.004;2023-03-03T08:54:26;98305.03;;;9.18;57.51
3260;BME280;22469;48.150;14.004;2023-03-03T08:56:53;98307.00;;;9.07;57.39
3260;BME280;22469;48.150;14.004;2023-03-03T08:59:20;98303.13;;;9.26;57.07
3260;BME280;22469;48.150;14.004;2023-03-03T09:01:47;98303.69;;;9.40;56.64
3260;BME280;22469;48.150;14.004;2023-03-03T09:04:14;98304.88;;;9.63;56.66
3260;BME280;22469;48.150;14.004;2023-03-03T09:06:42;98305.44;;;9.76;55.99
3260;BME280;22469;48.150;14.004;2023-03-03T09:09:09;98312.16;;;9.80;54.79
3260;BME280;22469;48.150;14.004;2023-03-03T09:11:36;98306.84;;;9.87;54.67
3260;BME280;22469;48.150;14.004;2023-03-03T09:14:11;98304.19;;;9.92;54.92
3260;BME280;22469;48.150;14.004;2023-03-03T09:16:53;98302.25;;;10.02;54.36
3260;BME280;22469;48.150;14.004;2023-03-03T09:22:00;98305.38;;;10.11;53.42
3260;BME280;22469;48.150;14.004;2023-03-03T09:24:35;98307.72;;;10.20;53.54
3260;BME280;22469;48.150;14.004;2023-03-03T09:27:20;98303.25;;;10.29;53.38
3260;BME280;22469;48.150;14.004;2023-03-03T09:29:53;98310.66;;;10.41;52.73
3260;BME280;22469;48.150;14.004;2023-03-03T09:32:36;98305.28;;;10.50;52.44
3260;BME280;22469;48.150;14.004;2023-03-03T09:35:37;98307.56;;;10.61;52.67
3260;BME280;22469;48.150;14.004;2023-03-03T09:38:23;98305.69;;;10.66;51.55
3260;BME280;22469;48.150;14.004;2023-03-03T09:41:04;98305.69;;;10.66;52.36
3260;BME280;22469;48.150;14.004;2023-03-03T10:01:20;98308.56;;;11.44;50.27
3260;BME280;22469;48.150;14.004;2023-03-03T10:13:21;98306.19;;;11.66;47.75
3260;BME280;22469;48.150;14.004;2023-03-03T10:18:54;98313.47;;;11.78;46.91
3260;BME280;22469;48.150;14.004;2023-03-03T10:21:49;98308.84;;;12.16;45.41
3260;BME280;22469;48.150;14.004;2023-03-03T10:30:10;98321.19;;;12.56;45.21
3260;BME280;22469;48.150;14.004;2023-03-03T10:42:15;98304.16;;;13.01;42.93
3260;BME280;22469;48.150;14.004;2023-03-03T10:45:19;98294.78;;;12.98;43.88
3260;BME280;22469;48.150;14.004;2023-03-03T10:48:00;98287.78;;;13.25;43.72
3260;BME280;22469;48.150;14.004;2023-03-03T10:56:55;98290.50;;;13.66;43.84
3260;BME280;22469;48.150;14.004;2023-03-03T10:59:42;98295.28;;;13.75;42.43
3260;BME280;22469;48.150;14.004;2023-03-03T11:05:43;98287.00;;;14.10;40.33
3260;BME280;22469;48.150;14.004;2023-03-03T11:08:26;98291.50;;;13.84;40.59
3260;BME280;22469;48.150;14.004;2023-03-03T11:14:44;98284.91;;;13.33;40.58
3260;BME280;22469;48.150;14.004;2023-03-03T11:18:12;98284.09;;;13.09;41.34
3260;BME280;22469;48.150;14.004;2023-03-03T11:27:39;98248.59;;;13.17;41.67
3260;BME280;22469;48.150;14.004;2023-03-03T11:39:11;98243.03;;;13.50;42.42
3260;BME280;22469;48.150;14.004;2023-03-03T11:42:02;98240.63;;;13.23;43.78
3260;BME280;22469;48.150;14.004;2023-03-03T11:45:02;98234.84;;;13.40;42.68
3260;BME280;22469;48.150;14.004;2023-03-03T11:47:57;98235.31;;;13.50;42.34
3260;BME280;22469;48.150;14.004;2023-03-03T11:53:28;98229.59;;;13.64;41.51
3260;BME280;22469;48.150;14.004;2023-03-03T12:04:19;98225.34;;;13.19;41.38
3260;BME280;22469;48.150;14.004;2023-03-03T12:10:02;98209.66;;;13.26;41.39
3260;BME280;22469;48.150;14.004;2023-03-03T12:12:43;98207.81;;;13.50;41.80
3260;BME280;22469;48.150;14.004;2023-03-03T12:15:29;98207.44;;;13.60;41.28
3260;BME280;22469;48.150;14.004;2023-03-03T12:21:32;98205.88;;;14.17;40.37
3260;BME280;22469;48.150;14.004;2023-03-03T12:41:42;98193.06;;;14.34;39.57
3260;BME280;22469;48.150;14.004;2023-03-03T12:47:14;98193.88;;;14.36;40.02
3260;BME280;22469;48.150;14.004;2023-03-03T12:56:49;98184.13;;;14.62;39.33
3260;BME280;22469;48.150;14.004;2023-03-03T13:12:10;98172.38;;;14.92;38.75
3260;BME280;22469;48.150;14.004;2023-03-03T13:14:26;98171.59;;;15.09;38.35
3260;BME280;22469;48.150;14.004;2023-03-03T13:17:14;98172.72;;;15.21;37.70
3260;BME280;22469;48.150;14.004;2023-03-03T13:22:36;98167.81;;;15.16;37.50
3260;BME280;22469;48.150;14.004;2023-03-03T13:27:55;98168.97;;;14.92;37.45
3260;BME280;22469;48.150;14.004;2023-03-03T13:30:34;98172.09;;;14.99;38.22
3260;BME280;22469;48.150;14.004;2023-03-03T13:33:10;98169.94;;;15.08;37.60
3260;BME280;22469;48.150;14.004;2023-03-03T13:36:17;98162.78;;;15.31;37.79
3260;BME280;22469;48.150;14.004;2023-03-03T13:38:51;98169.03;;;15.44;37.96
3260;BME280;22469;48.150;14.004;2023-03-03T13:44:11;98155.19;;;15.45;37.58
3260;BME280;22469;48.150;14.004;2023-03-03T13:47:00;98165.88;;;15.56;37.19
3260;BME280;22469;48.150;14.004;2023-03-03T13:52:38;98161.53;;;15.57;38.23
3260;BME280;22469;48.150;14.004;2023-03-03T13:55:43;98162.34;;;14.86;39.67
3260;BME280;22469;48.150;14.004;2023-03-03T13:58:24;98152.00;;;14.86;39.96
3260;BME280;22469;48.150;14.004;2023-03-03T14:07:23;98140.19;;;14.63;40.54
3260;BME280;22469;48.150;14.004;2023-03-03T14:10:20;98146.50;;;14.94;39.24
3260;BME280;22469;48.150;14.004;2023-03-03T14:13:10;98135.81;;;15.19;39.30
3260;BME280;22469;48.150;14.004;2023-03-03T14:21:17;98132.69;;;15.12;39.32
3260;BME280;22469;48.150;14.004;2023-03-03T14:24:12;98132.38;;;15.01;39.38
3260;BME280;22469;48.150;14.004;2023-03-03T14:26:53;98134.69;;;15.25;38.92
3260;BME280;22469;48.150;14.004;2023-03-03T14:31:57;98133.84;;;15.24;38.68
3260;BME280;22469;48.150;14.004;2023-03-03T14:34:38;98136.31;;;14.72;39.91
3260;BME280;22469;48.150;14.004;2023-03-03T14:40:15;98132.03;;;14.90;40.42
3260;BME280;22469;48.150;14.004;2023-03-03T14:45:36;98123.13;;;15.49;38.80
3260;BME280;22469;48.150;14.004;2023-03-03T14:48:17;98129.56;;;15.58;39.08
3260;BME280;22469;48.150;14.004;2023-03-03T14:55:50;98127.69;;;15.44;38.66
3260;BME280;22469;48.150;14.004;2023-03-03T15:01:16;98125.88;;;15.29;39.19
3260;BME280;22469;48.150;14.004;2023-03-03T15:04:00;98123.88;;;15.51;38.58
3260;BME280;22469;48.150;14.004;2023-03-03T15:06:51;98132.66;;;15.49;39.64
3260;BME280;22469;48.150;14.004;2023-03-03T15:09:22;98130.66;;;15.36;39.77
3260;BME280;22469;48.150;14.004;2023-03-03T15:11:52;98123.66;;;15.56;39.90
3260;BME280;22469;48.150;14.004;2023-03-03T15:14:41;98119.19;;;15.59;39.83
3260;BME280;22469;48.150;14.004;2023-03-03T15:17:34;98127.09;;;15.39;40.91
3260;BME280;22469;48.150;14.004;2023-03-03T15:22:58;98131.16;;;14.91;41.27
3260;BME280;22469;48.150;14.004;2023-03-03T15:37:05;98133.00;;;14.70;42.66
3260;BME280;22469;48.150;14.004;2023-03-03T15:39:43;98124.47;;;14.68;42.13
3260;BME280;22469;48.150;14.004;2023-03-03T15:45:36;98133.69;;;14.36;43.32
3260;BME280;22469;48.150;14.004;2023-03-03T16:03:32;98138.31;;;14.28;45.09
3260;BME280;22469;48.150;14.004;2023-03-03T16:12:12;98142.13;;;14.00;45.68
3260;BME280;22469;48.150;14.004;2023-03-03T16:17:36;98152.00;;;13.90;45.47
3260;BME280;22469;48.150;14.004;2023-03-03T16:20:30;98152.41;;;13.81;46.24
3260;BME280;22469;48.150;14.004;2023-03-03T16:23:32;98153.31;;;13.60;46.79
3260;BME280;22469;48.150;14.004;2023-03-03T16:26:23;98155.72;;;13.64;46.72
3260;BME280;22469;48.150;14.004;2023-03-03T16:34:44;98166.16;;;13.61;47.02
3260;BME280;22469;48.150;14.004;2023-03-03T16:37:33;98174.88;;;13.57;47.14
3260;BME280;22469;48.150;14.004;2023-03-03T16:40:37;98173.34;;;13.53;47.34
3260;BME280;22469;48.150;14.004;2023-03-03T16:46:50;98184.00;;;13.22;48.05
3260;BME280;22469;48.150;14.004;2023-03-03T16:57:58;98193.66;;;12.95;49.24
3260;BME280;22469;48.150;14.004;2023-03-03T17:00:59;98203.34;;;12.88;49.22
3260;BME280;22469;48.150;14.004;2023-03-03T17:03:33;98211.25;;;12.84;49.10
3260;BME280;22469;48.150;14.004;2023-03-03T17:06:11;98217.31;;;12.83;49.21
3260;BME280;22469;48.150;14.004;2023-03-03T17:17:28;98235.34;;;12.59;49.60
3260;BME280;22469;48.150;14.004;2023-03-03T17:37:42;98239.22;;;11.97;51.33
3260;BME280;22469;48.150;14.004;2023-03-03T17:43:22;98249.97;;;11.82;52.05
3260;BME280;22469;48.150;14.004;2023-03-03T17:46:00;98257.84;;;11.77;51.98
3260;BME280;22469;48.150;14.004;2023-03-03T17:59:53;98277.81;;;11.43;53.17
3260;BME280;22469;48.150;14.004;2023-03-03T18:02:56;98282.28;;;11.36;53.33
3260;BME280;22469;48.150;14.004;2023-03-03T18:08:45;98293.81;;;11.23;53.37
3260;BME280;22469;48.150;14.004;2023-03-03T18:23:42;98306.28;;;10.76;53.78
3260;BME280;22469;48.150;14.004;2023-03-03T18:34:38;98319.66;;;10.56;54.80
3260;BME280;22469;48.150;14.004;2023-03-03T18:42:39;98314.03;;;10.43;55.08
3260;BME280;22469;48.150;14.004;2023-03-03T18:48:15;98320.97;;;10.38;55.49
3260;BME280;22469;48.150;14.004;2023-03-03T18:50:48;98324.47;;;10.35;55.86
3260;BME280;22469;48.150;14.004;2023-03-03T18:53:29;98318.56;;;10.33;56.00
3260;BME280;22469;48.150;14.004;2023-03-03T18:56:03;98319.53;;;10.29;56.21
3260;BME280;22469;48.150;14.004;2023-03-03T18:58:42;98323.78;;;10.29;56.00
3260;BME280;22469;48.150;14.004;2023-03-03T19:09:04;98328.44;;;10.13;56.27
3260;BME280;22469;48.150;14.004;2023-03-03T19:14:28;98333.66;;;10.08;56.18
3260;BME280;22469;48.150;14.004;2023-03-03T19:20:12;98334.00;;;9.94;57.27
3260;BME280;22469;48.150;14.004;2023-03-03T19:22:45;98335.06;;;9.86;58.10
3260;BME280;22469;48.150;14.004;2023-03-03T19:28:31;98336.31;;;9.69;58.49
3260;BME280;22469;48.150;14.004;2023-03-03T19:31:12;98338.97;;;9.65;58.30
3260;BME280;22469;48.150;14.004;2023-03-03T19:34:22;98333.88;;;9.63;57.77
3260;BME280;22469;48.150;14.004;2023-03-03T19:47:27;98333.66;;;9.37;58.11
3260;BME280;22469;48.150;14.004;2023-03-03T19:52:47;98336.47;;;9.24;59.24
3260;BME280;22469;48.150;14.004;2023-03-03T19:56:13;98337.41;;;9.20;59.90